createdAt,value
2018-02-20T00:01:16.959Z,1.20
2018-02-20T00:03:35.699Z,1.20
2018-02-20T00:08:36.139Z,1.20
2018-02-20T00:15:35.675Z,1.10
2018-02-20T00:22:32.045Z,1.00
2018-02-20T00:29:38.849Z,1.00
2018-02-20T00:31:40.497Z,0.80
2018-02-20T00:33:41.550Z,0.90
2018-02-20T00:38:10.570Z,0.80
2018-02-20T00:48:34.163Z,0.60
2018-02-20T00:50:35.310Z,0.60
2018-02-20T01:00:15.278Z,0.50
2018-02-20T01:02:16.278Z,0.50
2018-02-20T01:11:49.320Z,0.50
2018-02-20T01:13:50.365Z,0.40
2018-02-20T01:15:51.459Z,0.30
2018-02-20T01:17:52.581Z,0.20
2018-02-20T01:19:53.678Z,0.10
2018-02-20T01:21:54.631Z,0.10
2018-02-20T01:26:27.530Z,0.10
2018-02-20T01:30:57.452Z,0.10
2018-02-20T01:32:58.713Z,0.10
2018-02-20T01:37:29.022Z,0.00
2018-02-20T01:39:30.286Z,0.00
2018-02-20T01:46:25.480Z,-0.10
2018-02-20T01:48:26.528Z,-0.10
2018-02-20T01:50:27.522Z,-0.20
2018-02-20T01:52:28.524Z,-0.20
2018-02-20T01:54:29.512Z,-0.20
2018-02-20T01:58:58.082Z,-0.30
2018-02-20T02:00:59.093Z,-0.30
2018-02-20T02:03:03.981Z,-0.30
2018-02-20T02:05:05.059Z,-0.30
2018-02-20T02:07:27.072Z,-0.30
2018-02-20T02:09:28.090Z,-0.40
2018-02-20T02:11:29.044Z,-0.40
2018-02-20T02:13:36.674Z,-0.40
2018-02-20T02:15:48.995Z,-0.40
2018-02-20T02:17:49.969Z,-0.40
2018-02-20T02:19:51.026Z,-0.40
2018-02-20T02:21:52.093Z,-0.50
2018-02-20T02:23:56.625Z,-0.50
2018-02-20T02:26:05.325Z,-0.50
2018-02-20T02:28:26.356Z,-0.50
2018-02-20T02:30:35.790Z,-0.60
2018-02-20T02:35:27.065Z,-0.60
2018-02-20T02:37:28.038Z,-0.60
2018-02-20T02:42:07.401Z,-0.60
2018-02-20T02:52:05.999Z,-0.80
2018-02-20T02:59:12.922Z,-0.90
2018-02-20T03:03:41.448Z,-0.90
2018-02-20T03:05:42.451Z,-1.00
2018-02-20T03:08:07.728Z,-1.00
2018-02-20T03:10:08.934Z,-1.10
2018-02-20T03:12:20.919Z,-1.00
2018-02-20T03:14:46.108Z,-1.00
2018-02-20T03:16:47.164Z,-1.00
2018-02-20T03:19:05.964Z,-1.00
2018-02-20T03:21:06.995Z,-1.00
2018-02-20T03:25:36.124Z,-1.00
2018-02-20T03:28:04.949Z,-1.00
2018-02-20T03:37:40.857Z,-1.30
2018-02-20T03:39:41.860Z,-1.20
2018-02-20T03:41:42.887Z,-1.20
2018-02-20T03:46:23.398Z,-1.20
2018-02-20T03:48:25.138Z,-1.10
2018-02-20T03:55:35.425Z,-1.20
2018-02-20T03:59:58.503Z,-1.30
2018-02-20T04:02:00.313Z,-1.30
2018-02-20T04:04:23.120Z,-1.30
2018-02-20T04:11:00.843Z,-1.50
2018-02-20T04:20:36.277Z,-1.60
2018-02-20T04:22:37.856Z,-1.70
2018-02-20T04:24:39.496Z,-1.70
2018-02-20T04:45:06.936Z,-1.60
2018-02-20T04:47:34.047Z,-1.70
2018-02-20T04:52:04.570Z,-1.70
2018-02-20T05:01:34.446Z,-1.70
2018-02-20T05:03:48.744Z,-1.70
2018-02-20T05:10:49.297Z,-1.70
2018-02-20T05:20:11.492Z,-1.60
2018-02-20T05:37:21.737Z,-1.90
2018-02-20T05:39:24.232Z,-1.80
2018-02-20T05:46:24.309Z,-1.80
2018-02-20T05:48:37.860Z,-1.90
2018-02-20T05:50:46.259Z,-1.90
2018-02-20T06:11:03.551Z,-2.10
2018-02-20T06:13:19.067Z,-2.10
2018-02-20T06:15:20.356Z,-2.10
2018-02-20T06:23:14.858Z,-2.10
2018-02-20T06:25:20.719Z,-2.10
2018-02-20T06:27:22.028Z,-2.10
2018-02-20T06:29:23.291Z,-2.00
2018-02-20T06:38:37.083Z,-2.10
2018-02-20T06:40:44.064Z,-2.00
2018-02-20T06:42:45.542Z,-2.10
2018-02-20T06:44:47.785Z,-2.10
2018-02-20T06:46:49.327Z,-2.10
2018-02-20T06:48:50.831Z,-2.10
2018-02-20T06:50:52.768Z,-2.10
2018-02-20T06:55:24.908Z,-2.10
2018-02-20T07:00:26.646Z,-2.10
2018-02-20T07:02:34.438Z,-2.00
2018-02-20T07:06:46.376Z,-1.90
2018-02-20T07:13:43.365Z,-1.60
2018-02-20T07:15:52.676Z,-1.40
2018-02-20T07:20:22.557Z,-0.70
2018-02-20T13:28:27.829Z,12.10
2018-02-20T13:30:29.732Z,12.20
2018-02-20T13:35:10.108Z,11.90
2018-02-20T13:49:53.567Z,10.80
2018-02-20T13:56:51.405Z,11.70
2018-02-20T14:03:49.062Z,11.40
2018-02-20T14:08:24.147Z,11.90
2018-02-20T14:12:54.735Z,11.90
2018-02-20T14:14:58.105Z,11.00
2018-02-20T14:16:59.503Z,10.70
2018-02-20T14:19:22.232Z,9.60
2018-02-20T14:43:44.607Z,8.80
2018-02-20T14:45:45.625Z,8.90
2018-02-20T14:47:46.647Z,9.30
2018-02-20T14:50:00.487Z,9.50
2018-02-20T14:52:01.517Z,9.90
2018-02-20T14:54:03.415Z,9.60
2018-02-20T14:56:04.796Z,9.50
2018-02-20T14:58:06.296Z,10.00
2018-02-20T15:00:07.965Z,10.10
2018-02-20T15:02:09.001Z,10.00
2018-02-20T15:04:09.975Z,9.90
2018-02-20T15:06:10.972Z,9.90
2018-02-20T15:08:14.170Z,10.10
2018-02-20T15:10:16.142Z,9.30
2018-02-20T15:12:17.307Z,9.20
2018-02-20T15:14:18.486Z,9.30
2018-02-20T15:16:33.000Z,9.60
2018-02-20T15:21:05.178Z,9.40
2018-02-20T15:23:23.559Z,9.30
2018-02-20T15:25:24.549Z,9.00
2018-02-20T15:27:25.552Z,9.10
2018-02-20T15:29:27.118Z,8.80
2018-02-20T15:31:28.697Z,8.60
2018-02-20T15:33:31.652Z,8.00
2018-02-20T15:38:10.041Z,7.90
2018-02-20T15:40:11.689Z,7.80
2018-02-20T15:42:12.707Z,7.70
2018-02-20T15:44:13.681Z,7.50
2018-02-20T15:46:14.677Z,7.20
2018-02-20T15:48:17.415Z,7.20
2018-02-20T15:55:13.438Z,6.70
2018-02-20T15:57:14.389Z,6.20
2018-02-20T15:59:15.389Z,6.20
2018-02-20T16:01:16.343Z,6.00
2018-02-20T16:03:17.306Z,5.80
2018-02-20T16:05:18.267Z,5.70
2018-02-20T16:07:19.203Z,5.50
2018-02-20T16:09:28.571Z,5.40
2018-02-20T16:11:29.558Z,5.20
2018-02-20T16:13:30.535Z,5.10
2018-02-20T16:15:38.628Z,4.90
2018-02-20T16:17:39.640Z,4.80
2018-02-20T16:19:40.656Z,4.70
2018-02-20T20:55:05.985Z,4.30
2018-02-20T20:57:30.687Z,0.50
2018-02-20T20:59:41.898Z,0.50
2018-02-20T21:01:43.487Z,0.40
2018-02-20T21:03:44.444Z,0.50
2018-02-20T21:05:45.529Z,0.40
2018-02-20T21:13:16.029Z,0.30
2018-02-20T21:15:18.341Z,0.30
2018-02-20T21:17:19.934Z,0.30
2018-02-20T21:19:22.290Z,0.20
2018-02-20T21:26:36.333Z,0.20
2018-02-20T21:28:37.984Z,0.10
2018-02-20T21:33:38.575Z,0.10
2018-02-20T21:35:42.457Z,0.10
2018-02-20T21:37:57.704Z,0.00
2018-02-20T21:42:11.928Z,-0.10
2018-02-20T21:44:12.956Z,-0.10
2018-02-20T21:46:38.885Z,-0.10
2018-02-20T21:48:39.899Z,-0.10
2018-02-20T21:50:40.915Z,-0.20
2018-02-20T21:52:41.995Z,-0.20
2018-02-20T21:55:08.252Z,-0.30
2018-02-20T21:57:09.261Z,-0.40
2018-02-20T22:04:41.341Z,-0.30
2018-02-20T22:06:42.378Z,-0.40
2018-02-20T22:08:43.371Z,-0.40
2018-02-20T22:10:51.382Z,-0.40
2018-02-20T22:12:52.475Z,-0.40
2018-02-20T22:14:54.109Z,-0.40
2018-02-20T22:16:55.160Z,-0.40
2018-02-20T22:22:39.809Z,-0.40
2018-02-20T22:24:41.590Z,-0.50
2018-02-20T22:26:42.582Z,-0.50
2018-02-20T22:28:43.565Z,-0.60
2018-02-20T22:33:15.475Z,-0.60
2018-02-20T22:35:16.503Z,-0.60
2018-02-20T22:37:19.264Z,-0.60
2018-02-20T22:39:20.342Z,-0.60
2018-02-20T22:41:21.328Z,-0.70
2018-02-20T22:43:44.829Z,-0.60
2018-02-20T22:45:45.817Z,-0.70
2018-02-20T22:48:14.466Z,-0.60
2018-02-20T22:50:15.486Z,-0.70
2018-02-20T22:54:44.736Z,-0.70
2018-02-20T22:56:53.849Z,-0.70
2018-02-20T22:58:54.969Z,-0.70
2018-02-20T23:01:14.694Z,-0.80
2018-02-20T23:09:53.839Z,-0.80
2018-02-20T23:11:54.867Z,-0.80
2018-02-20T23:14:14.450Z,-0.90
2018-02-20T23:16:15.444Z,-0.90
2018-02-20T23:23:14.937Z,-0.90
2018-02-20T23:30:30.930Z,-1.00
2018-02-20T23:32:32.113Z,-1.00
2018-02-20T23:34:46.339Z,-1.00
2018-02-20T23:36:47.340Z,-1.10
2018-02-20T23:38:48.295Z,-1.10
2018-02-20T23:40:58.660Z,-1.10
2018-02-20T23:43:01.219Z,-1.10
2018-02-20T23:45:21.982Z,-1.10
2018-02-20T23:47:24.985Z,-1.20
2018-02-20T23:49:27.223Z,-1.20
2018-02-20T23:54:16.078Z,-1.30
2018-02-20T23:56:19.645Z,-1.40
2018-02-20T23:58:22.833Z,-1.40
